首页
METAR-TAF:

METAR-TAF

机场 :

曼哈頓, 堪薩斯州, 美国

纬度: 39-08-07N, 经度: 096-40-40W, 海拔: 321米

当前天气观测

该预报发布于1小时和13分钟前的15:52 UTC
风速9节,风向
温度 28°C
湿度 66%
气压 1010 hPa
能見度: 16.1公里
天空无云

METAR: KMHK 041552Z 18009KT 10SM CLR 28/21 A2982 RMK AO2 SLP085 T02780206

时间: 12:05 (17:05 UTC)

预报

该预报发布于5小时和45分钟前的11:20 UTC
预报有效从04日的 12点(UTC)到 05日的 12点(UTC)
风速5节,风向
能見度: 10公里
少量云层高于4000英尺
少量云层高于25000英尺

TAF: KMHK 041120Z 0412/0512 19005KT P6SM FEW040 FEW250

超过4000个机场的气象观测和天气预报(METAR&TAF报告)。

可查询的气象台以黄色和红色小点在地图上表示。

将鼠标移到小点上方,可查看气象台名称。

然后点击查看天气观测和预报。

如需切换地图:点击带黑十字的绿色按钮放大地图;点击带横线的绿色按钮缩小地图;或者点击绿色箭头查看邻近地区的地图。


METAR-TAF: